createdAt,value
2023-05-03T00:01:02.224Z,101937.47
2023-05-03T00:03:52.701Z,101944.06
2023-05-03T00:06:40.476Z,101939.19
2023-05-03T00:09:28.135Z,101934.97
2023-05-03T00:12:15.743Z,101930.31
2023-05-03T00:15:03.283Z,101926.78
2023-05-03T00:17:51.442Z,101929.47
2023-05-03T00:20:39.065Z,101924.13
2023-05-03T00:23:28.302Z,101932.91
2023-05-03T00:26:15.809Z,101940.09
2023-05-03T00:29:03.577Z,101938.88
2023-05-03T00:31:51.074Z,101936.50
2023-05-03T00:34:39.095Z,101940.53
2023-05-03T00:37:27.012Z,101933.56
2023-05-03T00:40:18.585Z,101950.09
2023-05-03T00:43:06.483Z,101936.28
2023-05-03T00:45:59.374Z,101928.56
2023-05-03T00:48:56.177Z,101934.00
2023-05-03T00:51:43.738Z,101931.19
2023-05-03T00:54:33.137Z,101935.78
2023-05-03T00:57:22.606Z,101928.06
2023-05-03T01:00:10.789Z,101924.41
2023-05-03T01:02:58.568Z,101917.28
2023-05-03T01:06:13.854Z,101917.69
2023-05-03T01:09:13.795Z,101913.16
2023-05-03T01:12:01.136Z,101920.34
2023-05-03T01:15:10.452Z,101921.09
2023-05-03T01:18:03.297Z,101921.09
2023-05-03T01:20:51.833Z,101916.16
2023-05-03T01:23:47.083Z,101918.03
2023-05-03T01:26:34.713Z,101925.97
2023-05-03T01:29:22.281Z,101918.66
2023-05-03T01:32:16.249Z,101928.13
2023-05-03T01:35:21.203Z,101922.00
2023-05-03T01:38:09.637Z,101921.72
2023-05-03T01:41:01.714Z,101923.47
2023-05-03T01:43:49.720Z,101935.28
2023-05-03T01:46:44.691Z,101928.78
2023-05-03T01:49:33.264Z,101932.38
2023-05-03T01:52:20.841Z,101937.34
2023-05-03T01:55:08.744Z,101937.09
2023-05-03T01:57:56.195Z,101943.50
2023-05-03T02:00:45.662Z,101943.53
2023-05-03T02:03:33.453Z,101942.56
2023-05-03T02:06:21.039Z,101937.59
2023-05-03T02:09:08.677Z,101943.22
2023-05-03T02:12:08.320Z,101938.28
2023-05-03T02:14:56.516Z,101927.16
2023-05-03T02:17:45.487Z,101930.09
2023-05-03T02:20:37.704Z,101929.50
2023-05-03T02:23:25.316Z,101940.00
2023-05-03T02:26:14.910Z,101938.88
2023-05-03T02:29:03.934Z,101936.69
2023-05-03T02:31:53.632Z,101941.50
2023-05-03T02:34:41.665Z,101940.09
2023-05-03T02:37:31.574Z,101931.66
2023-05-03T02:40:21.730Z,101940.31
2023-05-03T02:43:09.968Z,101938.84
2023-05-03T02:45:57.777Z,101936.50
2023-05-03T02:48:46.654Z,101946.41
2023-05-03T02:51:35.756Z,101943.28
2023-05-03T02:54:23.736Z,101938.72
2023-05-03T02:57:14.086Z,101943.94
2023-05-03T03:00:02.142Z,101935.69
2023-05-03T03:02:50.363Z,101937.41
2023-05-03T03:05:38.179Z,101928.44
2023-05-03T03:08:25.852Z,101932.84
2023-05-03T03:11:15.863Z,101926.41
2023-05-03T03:14:03.383Z,101922.22
2023-05-03T03:16:51.866Z,101924.97
2023-05-03T03:19:39.387Z,101920.16
2023-05-03T03:22:26.936Z,101909.44
2023-05-03T03:25:14.448Z,101905.09
2023-05-03T03:28:02.033Z,101913.91
2023-05-03T03:30:50.923Z,101907.00
2023-05-03T03:33:43.268Z,101909.56
2023-05-03T03:36:38.029Z,101898.19
2023-05-03T03:39:25.899Z,101892.75
2023-05-03T03:42:14.740Z,101896.03
2023-05-03T03:45:03.148Z,101889.72
2023-05-03T03:47:51.583Z,101884.84
2023-05-03T03:50:42.743Z,101887.00
2023-05-03T03:53:31.534Z,101891.78
2023-05-03T03:56:19.046Z,101895.88
2023-05-03T03:59:09.156Z,101887.38
2023-05-03T04:01:56.965Z,101888.19
2023-05-03T04:04:44.751Z,101884.22
2023-05-03T04:07:32.387Z,101884.13
2023-05-03T04:10:20.143Z,101891.41
2023-05-03T04:13:07.629Z,101887.19
2023-05-03T04:15:56.890Z,101894.31
2023-05-03T04:18:45.540Z,101889.44
2023-05-03T04:21:33.209Z,101883.44
2023-05-03T04:24:21.262Z,101890.03
2023-05-03T04:27:09.842Z,101885.03
2023-05-03T04:30:00.322Z,101891.50
2023-05-03T04:32:48.164Z,101890.31
2023-05-03T04:35:36.256Z,101887.28
2023-05-03T04:38:29.041Z,101892.66
2023-05-03T04:41:19.059Z,101886.00
2023-05-03T04:44:08.112Z,101889.94
2023-05-03T04:46:56.255Z,101892.72
2023-05-03T04:49:47.154Z,101898.31
2023-05-03T04:52:35.064Z,101903.09
2023-05-03T04:55:22.659Z,101902.22
2023-05-03T04:58:10.438Z,101906.81
2023-05-03T05:00:59.120Z,101904.19
2023-05-03T05:03:50.022Z,101902.25
2023-05-03T05:06:42.392Z,101905.53
2023-05-03T05:09:33.577Z,101902.06
2023-05-03T05:12:23.506Z,101903.97
2023-05-03T05:15:11.483Z,101896.69
2023-05-03T05:18:00.235Z,101902.53
2023-05-03T05:20:48.055Z,101892.44
2023-05-03T05:23:36.414Z,101891.88
2023-05-03T05:26:26.075Z,101893.78
2023-05-03T05:29:13.689Z,101890.44
2023-05-03T05:32:03.366Z,101894.84
2023-05-03T05:34:55.359Z,101890.19
2023-05-03T05:37:45.014Z,101887.31
2023-05-03T05:40:33.724Z,101890.69
2023-05-03T05:43:22.384Z,101893.09
2023-05-03T05:46:10.331Z,101891.47
2023-05-03T05:48:57.921Z,101897.75
2023-05-03T05:51:45.830Z,101899.28
2023-05-03T05:54:33.659Z,101895.94
2023-05-03T05:57:21.246Z,101899.41
2023-05-03T06:00:14.920Z,101900.59
2023-05-03T06:03:04.603Z,101908.63
2023-05-03T06:05:52.212Z,101909.03
2023-05-03T06:08:41.045Z,101910.59
2023-05-03T06:11:29.548Z,101905.81
2023-05-03T06:14:19.367Z,101913.16
2023-05-03T06:17:07.436Z,101916.59
2023-05-03T06:19:54.953Z,101915.06
2023-05-03T06:22:42.485Z,101903.06
2023-05-03T06:25:31.657Z,101905.63
2023-05-03T06:28:19.328Z,101904.09
2023-05-03T06:31:06.849Z,101905.53
2023-05-03T06:33:54.401Z,101892.06
2023-05-03T06:36:41.990Z,101900.50
2023-05-03T06:39:29.709Z,101895.69
2023-05-03T06:42:17.689Z,101890.50
2023-05-03T06:45:06.125Z,101897.78
2023-05-03T06:47:53.664Z,101897.78
2023-05-03T06:50:41.276Z,101901.72
2023-05-03T06:53:29.615Z,101895.69
2023-05-03T06:56:17.047Z,101904.09
2023-05-03T06:59:04.748Z,101891.03
2023-05-03T07:01:52.376Z,101891.25
2023-05-03T07:04:39.984Z,101884.25
2023-05-03T07:07:27.980Z,101880.72
2023-05-03T07:10:15.557Z,101877.06
2023-05-03T07:13:03.063Z,101878.59
2023-05-03T07:15:50.754Z,101883.66
2023-05-03T07:18:38.242Z,101883.13
2023-05-03T07:21:26.981Z,101870.28
2023-05-03T07:24:14.801Z,101875.19
2023-05-03T07:27:02.334Z,101884.03
2023-05-03T07:29:49.866Z,101871.88
2023-05-03T07:32:37.642Z,101864.78
2023-05-03T07:35:26.868Z,101868.50
2023-05-03T07:38:14.656Z,101864.75
2023-05-03T07:41:02.320Z,101863.44
2023-05-03T07:43:50.012Z,101856.13
2023-05-03T07:46:37.486Z,101851.31
2023-05-03T07:49:25.097Z,101845.19
2023-05-03T07:52:12.587Z,101841.13
2023-05-03T07:55:00.306Z,101837.34
2023-05-03T07:57:47.794Z,101828.22
2023-05-03T08:00:35.481Z,101840.13
2023-05-03T08:03:23.905Z,101827.00
2023-05-03T08:06:12.040Z,101811.34
2023-05-03T08:08:59.645Z,101814.47
2023-05-03T08:11:47.306Z,101820.34
2023-05-03T08:14:36.670Z,101820.84
2023-05-03T08:17:24.308Z,101814.59
2023-05-03T08:20:13.402Z,101814.38
2023-05-03T08:23:01.679Z,101802.97
2023-05-03T08:25:49.286Z,101803.56
2023-05-03T08:28:36.921Z,101799.78
2023-05-03T08:31:24.675Z,101800.97
2023-05-03T08:34:13.194Z,101802.56
2023-05-03T08:37:01.341Z,101798.81
2023-05-03T08:39:48.873Z,101807.59
2023-05-03T08:42:39.203Z,101795.16
2023-05-03T08:45:26.661Z,101792.25
2023-05-03T08:48:14.431Z,101794.69
2023-05-03T08:51:04.751Z,101786.31
2023-05-03T08:53:52.609Z,101782.75
2023-05-03T08:56:42.425Z,101784.31
2023-05-03T08:59:30.361Z,101779.19
2023-05-03T09:02:18.089Z,101784.50
2023-05-03T09:05:15.605Z,101781.31
2023-05-03T09:08:10.093Z,101782.88
2023-05-03T09:10:58.019Z,101777.25
2023-05-03T09:13:45.727Z,101767.44
2023-05-03T09:16:33.438Z,101774.19
2023-05-03T09:19:21.644Z,101771.53
2023-05-03T09:22:09.161Z,101770.72
2023-05-03T09:24:58.669Z,101772.28
2023-05-03T09:28:01.200Z,101772.00
2023-05-03T09:30:49.650Z,101762.00
2023-05-03T09:33:37.426Z,101764.72
2023-05-03T09:36:25.224Z,101764.19
2023-05-03T09:39:19.269Z,101765.31
2023-05-03T09:42:16.663Z,101757.94
2023-05-03T09:45:05.049Z,101755.06
2023-05-03T09:47:55.723Z,101761.75
2023-05-03T09:50:43.645Z,101761.13
2023-05-03T09:53:32.730Z,101752.84
2023-05-03T09:56:22.726Z,101766.94
2023-05-03T09:59:10.349Z,101753.09
2023-05-03T10:01:59.870Z,101753.00
2023-05-03T10:04:52.572Z,101749.06
2023-05-03T10:07:41.003Z,101731.72
2023-05-03T10:10:31.026Z,101745.78
2023-05-03T10:13:18.752Z,101738.44
2023-05-03T10:16:13.886Z,101729.78
2023-05-03T10:19:12.045Z,101730.63
2023-05-03T10:22:08.847Z,101729.50
2023-05-03T10:25:02.986Z,101733.25
2023-05-03T10:27:52.475Z,101726.72
2023-05-03T10:30:40.424Z,101712.50
2023-05-03T10:33:32.708Z,101720.53
2023-05-03T10:36:20.342Z,101719.66
2023-05-03T10:39:14.563Z,101714.44
2023-05-03T10:42:03.842Z,101704.31
2023-05-03T10:44:55.219Z,101706.13
2023-05-03T10:47:42.857Z,101696.16
2023-05-03T10:50:30.650Z,101698.41
2023-05-03T10:53:37.547Z,101681.47
2023-05-03T10:56:25.041Z,101677.38
2023-05-03T10:59:12.546Z,101676.84
2023-05-03T11:02:00.518Z,101672.91
2023-05-03T11:04:48.379Z,101664.47
2023-05-03T11:07:35.904Z,101668.56
2023-05-03T11:10:23.744Z,101666.41
2023-05-03T11:13:12.142Z,101653.41
2023-05-03T11:16:00.943Z,101655.41
2023-05-03T11:18:48.813Z,101649.97
2023-05-03T11:21:36.437Z,101649.34
2023-05-03T11:24:23.968Z,101653.06
2023-05-03T11:27:13.983Z,101633.91
2023-05-03T11:30:01.421Z,101625.81
2023-05-03T11:32:49.862Z,101631.59
2023-05-03T11:35:37.786Z,101624.63
2023-05-03T11:38:25.997Z,101630.13
2023-05-03T11:41:18.943Z,101620.94
2023-05-03T11:44:16.243Z,101610.13
2023-05-03T11:47:05.628Z,101606.28
2023-05-03T11:49:57.821Z,101594.34
2023-05-03T11:52:46.501Z,101598.75
2023-05-03T11:55:34.555Z,101589.47
2023-05-03T11:58:24.935Z,101588.78
2023-05-03T12:01:12.502Z,101579.47
2023-05-03T12:04:05.443Z,101578.41
2023-05-03T12:06:54.566Z,101587.81
2023-05-03T12:09:45.580Z,101573.13
2023-05-03T12:12:42.448Z,101573.19
2023-05-03T12:15:33.880Z,101555.84
2023-05-03T12:18:22.043Z,101562.28
2023-05-03T12:21:30.783Z,101559.91
2023-05-03T12:24:20.525Z,101539.00
2023-05-03T12:27:08.757Z,101541.25
2023-05-03T12:32:44.587Z,101533.41
2023-05-03T12:35:34.236Z,101535.72
2023-05-03T12:38:24.301Z,101522.31
2023-05-03T12:41:15.712Z,101522.66
2023-05-03T12:44:03.639Z,101520.50
2023-05-03T12:46:53.211Z,101525.75
2023-05-03T12:49:45.778Z,101513.13
2023-05-03T12:52:37.842Z,101515.81
2023-05-03T12:55:27.029Z,101518.25
2023-05-03T12:58:40.471Z,101514.28
2023-05-03T13:02:18.616Z,101503.53
2023-05-03T13:07:32.040Z,101492.97
2023-05-03T13:13:13.552Z,101486.75
2023-05-03T13:16:02.063Z,101478.19
2023-05-03T13:18:54.997Z,101472.22
2023-05-03T13:21:42.888Z,101464.91
2023-05-03T13:24:30.453Z,101473.72
2023-05-03T13:27:18.264Z,101458.06
2023-05-03T13:30:06.609Z,101453.66
2023-05-03T13:32:54.153Z,101453.00
2023-05-03T13:35:41.738Z,101451.97
2023-05-03T13:38:29.267Z,101441.75
2023-05-03T13:41:17.257Z,101451.19
2023-05-03T13:44:05.044Z,101435.09
2023-05-03T13:46:52.832Z,101432.56
2023-05-03T13:49:40.716Z,101420.63
2023-05-03T13:52:28.232Z,101424.56
2023-05-03T13:55:15.684Z,101423.97
2023-05-03T13:58:03.164Z,101420.88
2023-05-03T14:00:50.785Z,101404.97
2023-05-03T14:03:38.260Z,101407.56
2023-05-03T14:06:25.942Z,101409.50
2023-05-03T14:09:13.973Z,101398.75
2023-05-03T14:12:03.089Z,101405.53
2023-05-03T14:14:50.700Z,101400.59
2023-05-03T14:17:38.511Z,101396.44
2023-05-03T14:20:25.955Z,101394.34
2023-05-03T14:23:13.561Z,101397.09
2023-05-03T14:26:02.286Z,101392.66
2023-05-03T14:28:49.847Z,101387.88
2023-05-03T14:31:37.597Z,101387.56
2023-05-03T14:34:25.294Z,101377.16
2023-05-03T14:37:12.996Z,101376.47
2023-05-03T14:40:00.706Z,101379.44
2023-05-03T14:42:48.942Z,101375.59
2023-05-03T14:45:36.616Z,101384.16
2023-05-03T14:48:24.148Z,101380.78
2023-05-03T14:51:11.679Z,101376.28
2023-05-03T14:53:59.433Z,101376.19
2023-05-03T14:56:47.082Z,101379.78
2023-05-03T14:59:34.596Z,101372.03
2023-05-03T15:02:22.782Z,101371.19
2023-05-03T15:05:11.133Z,101359.22
2023-05-03T15:08:00.056Z,101361.41
2023-05-03T15:10:47.825Z,101351.69
2023-05-03T15:13:35.758Z,101354.91
2023-05-03T15:16:23.562Z,101346.72
2023-05-03T15:19:11.163Z,101342.16
2023-05-03T15:21:59.009Z,101346.19
2023-05-03T15:24:47.116Z,101339.50
2023-05-03T15:27:34.614Z,101335.13
2023-05-03T15:30:22.217Z,101336.97
2023-05-03T15:33:11.977Z,101338.81
2023-05-03T15:35:59.514Z,101334.59
2023-05-03T15:38:50.257Z,101343.31
2023-05-03T15:41:37.924Z,101335.00
2023-05-03T15:44:25.569Z,101341.97
2023-05-03T15:47:13.071Z,101339.75
2023-05-03T15:50:02.070Z,101342.19
2023-05-03T15:52:49.935Z,101331.91
2023-05-03T15:55:37.790Z,101333.63
2023-05-03T15:58:26.157Z,101330.41
2023-05-03T16:01:14.047Z,101326.78
2023-05-03T16:04:01.657Z,101324.69
2023-05-03T16:06:49.099Z,101323.91
2023-05-03T16:09:36.846Z,101317.38
2023-05-03T16:12:24.589Z,101314.75
2023-05-03T16:15:12.315Z,101314.81
2023-05-03T16:17:59.905Z,101305.53
2023-05-03T16:20:48.655Z,101319.72
2023-05-03T16:23:36.257Z,101319.50
2023-05-03T16:26:24.138Z,101331.00
2023-05-03T16:29:11.734Z,101316.72
2023-05-03T16:31:59.368Z,101319.41
2023-05-03T16:34:48.479Z,101322.78
2023-05-03T16:37:38.065Z,101316.53
2023-05-03T16:40:25.627Z,101323.66
2023-05-03T16:43:15.502Z,101310.84
2023-05-03T16:46:03.144Z,101308.31
2023-05-03T16:48:50.773Z,101314.56
2023-05-03T16:51:39.684Z,101309.19
2023-05-03T16:54:27.786Z,101318.97
2023-05-03T16:57:15.219Z,101311.91
2023-05-03T17:00:09.567Z,101300.31
2023-05-03T17:02:57.572Z,101299.06
2023-05-03T17:05:45.173Z,101296.34
2023-05-03T17:08:33.057Z,101300.91
2023-05-03T17:11:22.383Z,101298.34
2023-05-03T17:14:09.947Z,101294.78
2023-05-03T17:16:57.640Z,101295.69
2023-05-03T17:19:45.237Z,101285.53
2023-05-03T17:22:32.999Z,101298.34
2023-05-03T17:25:21.221Z,101295.47
2023-05-03T17:28:09.600Z,101282.78
2023-05-03T17:30:57.369Z,101285.88
2023-05-03T17:33:45.746Z,101286.31
2023-05-03T17:36:33.898Z,101287.38
2023-05-03T17:39:21.490Z,101279.88
2023-05-03T17:42:09.333Z,101281.06
2023-05-03T17:44:57.948Z,101287.25
2023-05-03T17:47:46.036Z,101276.75
2023-05-03T17:50:33.577Z,101273.88
2023-05-03T17:53:21.093Z,101273.91
2023-05-03T17:56:15.973Z,101273.81
2023-05-03T17:59:03.677Z,101276.81
2023-05-03T18:01:51.236Z,101270.19
2023-05-03T18:04:39.197Z,101267.59
2023-05-03T18:07:27.369Z,101273.28
2023-05-03T18:10:17.452Z,101278.25
2023-05-03T18:13:05.092Z,101272.03
2023-05-03T18:15:52.933Z,101265.97
2023-05-03T18:18:40.485Z,101266.06
2023-05-03T18:21:28.890Z,101266.31
2023-05-03T18:24:16.556Z,101270.41
2023-05-03T18:27:04.253Z,101269.69
2023-05-03T18:29:51.901Z,101268.91
2023-05-03T18:32:39.695Z,101268.81
2023-05-03T18:35:27.133Z,101264.75
2023-05-03T18:38:14.780Z,101263.75
2023-05-03T18:41:02.419Z,101273.94
2023-05-03T18:43:51.974Z,101266.13
2023-05-03T18:46:39.626Z,101261.97
2023-05-03T18:49:27.432Z,101268.81
2023-05-03T18:52:15.241Z,101261.13
2023-05-03T18:55:02.875Z,101266.94
2023-05-03T18:57:50.479Z,101261.59
2023-05-03T19:00:38.268Z,101268.38
2023-05-03T19:03:29.782Z,101263.50
2023-05-03T19:06:17.906Z,101256.88
2023-05-03T19:09:05.349Z,101257.50
2023-05-03T19:11:52.912Z,101262.34
2023-05-03T19:14:41.338Z,101264.47
2023-05-03T19:17:28.960Z,101262.97
2023-05-03T19:20:17.393Z,101256.91
2023-05-03T19:23:04.931Z,101262.13
2023-05-03T19:25:52.600Z,101259.97
2023-05-03T19:28:40.377Z,101261.47
2023-05-03T19:31:27.985Z,101258.25
2023-05-03T19:34:15.632Z,101261.41
2023-05-03T19:37:03.113Z,101260.16
2023-05-03T19:39:50.755Z,101269.34
2023-05-03T19:42:38.565Z,101259.88
2023-05-03T19:45:26.027Z,101271.44
2023-05-03T19:48:15.973Z,101261.47
2023-05-03T19:51:05.681Z,101262.13
2023-05-03T19:53:53.303Z,101268.56
2023-05-03T19:56:40.771Z,101257.41
2023-05-03T19:59:29.344Z,101256.03
2023-05-03T20:02:18.453Z,101260.53
2023-05-03T20:05:07.081Z,101254.34
2023-05-03T20:07:54.633Z,101260.78
2023-05-03T20:10:44.733Z,101260.81
2023-05-03T20:13:33.966Z,101279.13
2023-05-03T20:16:21.951Z,101277.03
2023-05-03T20:19:09.742Z,101277.50
2023-05-03T20:21:57.526Z,101274.41
2023-05-03T20:24:45.055Z,101266.91
2023-05-03T20:27:32.598Z,101272.22
2023-05-03T20:30:20.165Z,101266.59
2023-05-03T20:33:07.938Z,101266.22
2023-05-03T20:35:55.480Z,101266.66
2023-05-03T20:38:43.100Z,101263.28
2023-05-03T20:41:31.450Z,101276.69
2023-05-03T20:44:19.000Z,101264.97
2023-05-03T20:47:06.536Z,101275.00
2023-05-03T20:49:54.008Z,101264.66
2023-05-03T20:52:41.513Z,101274.84
2023-05-03T20:55:29.007Z,101260.34
2023-05-03T20:58:16.648Z,101262.56
2023-05-03T21:01:05.328Z,101265.19
2023-05-03T21:03:52.910Z,101258.84
2023-05-03T21:06:41.194Z,101247.81
2023-05-03T21:09:30.459Z,101249.03
2023-05-03T21:12:18.065Z,101249.97
2023-05-03T21:15:06.042Z,101239.56
2023-05-03T21:17:53.638Z,101240.75
2023-05-03T21:20:41.128Z,101239.47
2023-05-03T21:23:28.632Z,101237.03
2023-05-03T21:26:16.330Z,101232.38
2023-05-03T21:29:04.125Z,101223.59
2023-05-03T21:31:51.901Z,101221.50
2023-05-03T21:34:39.390Z,101218.47
2023-05-03T21:37:27.039Z,101211.72
2023-05-03T21:40:15.300Z,101212.03
2023-05-03T21:43:04.309Z,101204.75
2023-05-03T21:45:51.920Z,101203.50
2023-05-03T21:48:40.295Z,101196.66
2023-05-03T21:51:30.722Z,101206.44
2023-05-03T21:54:19.143Z,101202.38
2023-05-03T21:57:06.684Z,101200.16
2023-05-03T21:59:55.394Z,101192.88
2023-05-03T22:02:43.060Z,101189.97
2023-05-03T22:05:30.986Z,101190.22
2023-05-03T22:08:18.633Z,101188.22
2023-05-03T22:11:07.071Z,101182.31
2023-05-03T22:14:05.969Z,101186.00
2023-05-03T22:16:55.038Z,101181.34
2023-05-03T22:19:42.761Z,101176.91
2023-05-03T22:22:30.429Z,101170.78
2023-05-03T22:25:24.824Z,101151.63
2023-05-03T22:28:12.841Z,101146.41
2023-05-03T22:31:00.537Z,101153.44
2023-05-03T22:33:49.024Z,101141.63
2023-05-03T22:36:36.549Z,101146.41
2023-05-03T22:39:24.162Z,101147.69
2023-05-03T22:42:11.651Z,101148.25
2023-05-03T22:44:59.205Z,101152.91
2023-05-03T22:47:46.821Z,101153.81
2023-05-03T22:50:34.397Z,101146.53
2023-05-03T22:53:22.081Z,101146.50
2023-05-03T22:56:09.591Z,101143.88
2023-05-03T22:58:57.045Z,101145.81
2023-05-03T23:01:46.136Z,101140.59
2023-05-03T23:04:33.806Z,101154.63
2023-05-03T23:07:21.506Z,101162.44
2023-05-03T23:10:09.791Z,101161.16
2023-05-03T23:12:57.573Z,101171.81
2023-05-03T23:15:45.129Z,101165.31
2023-05-03T23:18:32.806Z,101166.59
2023-05-03T23:21:20.656Z,101150.84
2023-05-03T23:24:08.378Z,101151.19
2023-05-03T23:26:55.819Z,101147.34
2023-05-03T23:29:43.502Z,101147.47
2023-05-03T23:32:31.445Z,101145.81
2023-05-03T23:35:20.776Z,101139.41
2023-05-03T23:38:08.430Z,101145.47
2023-05-03T23:40:55.981Z,101140.59
2023-05-03T23:43:43.508Z,101144.06
2023-05-03T23:46:33.741Z,101137.47
2023-05-03T23:49:21.577Z,101135.63
2023-05-03T23:52:09.926Z,101129.25
2023-05-03T23:54:57.429Z,101127.16
2023-05-03T23:57:44.988Z,101134.34
